Tuesday, October 17, 2017, 2:55 PM EDT
Back to Local

KDYL, Doylestown Airport

Location: Doylestown, PA, United States Lat: 40.333
Local Time: 2:55 PM EDT (18:55 GMT) Lon: -75.117
Time Zone: US/Eastern Elev: 393 ft

Show me the last for .
Show Coded

Time T Td Feel RH Dir Speed Gust Alt SLP Vis Weather Sky Remarks
2017-10-17 13:54 58 34 - 40 340° 6 - 30.29 30.30 10 CLR 6-hr Min Temp (2pm): 36.0°F
6-hr Max Temp (2pm): 59.0°F
2017-10-17 12:54 54 35 - 48 - Calm - 30.31 30.32 10 CLR None
2017-10-17 11:54 53 35 - 50 - Calm - 30.34 30.34 10 CLR None
2017-10-17 10:54 51 34 - 51 40° 8 - 30.35 30.35 10 CLR None
2017-10-17 09:54 47 34 44 60 20° 6 - 30.36 30.37 10 CLR None
2017-10-17 08:54 42 33 38 70 360° 6 - 30.35 30.36 10 CLR None
2017-10-17 07:54 36 33 - 89 - Calm - 30.33 30.34 10 CLR 6-hr Min Temp (8am): 35.1°F
6-hr Max Temp (8am): 43.0°F
2017-10-17 06:54 37 32 33 81 10° 5 - 30.32 30.33 10 CLR None
2017-10-17 05:54 37 32 33 81 360° 5 - 30.30 30.31 10 CLR None
2017-10-17 04:54 37 32 - 81 - Calm - 30.28 30.29 10 CLR None
2017-10-17 02:54 38 32 - 78 - Calm - 30.26 30.27 10 CLR None
2017-10-17 01:54 41 31 39 67 350° 3 - 30.25 30.26 10 CLR 6-hr Min Temp (2am): 41.0°F
6-hr Max Temp (2am): 48.9°F
2017-10-17 00:54 43 33 40 67 350° 5 - 30.25 30.25 10 CLR 24-hr Min Temp (1am): 42.1°F
24-hr Max Temp (1am): 66.9°F
2017-10-16 23:54 44 33 39 65 360° 10 - 30.24 30.25 10 CLR None
2017-10-16 22:54 45 34 41 65 360° 7 - 30.23 30.24 10 CLR None
2017-10-16 21:54 46 34 42 62 10° 8 - 30.21 30.21 10 CLR None
2017-10-16 20:54 47 34 46 60 10° 3 - 30.17 30.18 10 CLR None
2017-10-16 19:54 49 33 48 54 350° 3 - 30.15 30.15 10 CLR 6-hr Min Temp (8pm): 48.9°F
6-hr Max Temp (8pm): 57.0°F
2017-10-16 18:54 51 32 - 47 10° 9 - 30.13 30.13 10 CLR None
2017-10-16 17:54 55 34 - 44 340° 13 20 30.11 30.11 10 CLR None
2017-10-16 16:54 57 36 - 45 350° 9 23 30.09 30.09 10 CLR None
2017-10-16 15:54 57 40 - 52 320° 10 21 30.07 30.06 10 FEW042 None

Support USWX by starting your Amazon purchase here.